createdAt,value
2022-12-25T00:02:04.841Z,10.47
2022-12-25T00:04:32.744Z,11.63
2022-12-25T00:07:01.088Z,10.90
2022-12-25T00:09:29.076Z,10.10
2022-12-25T00:11:56.867Z,11.40
2022-12-25T00:14:24.880Z,10.27
2022-12-25T00:16:52.652Z,11.00
2022-12-25T00:19:22.343Z,10.20
2022-12-25T00:21:50.180Z,11.68
2022-12-25T00:24:18.133Z,10.30
2022-12-25T00:26:46.050Z,10.67
2022-12-25T00:29:14.737Z,11.10
2022-12-25T00:31:42.596Z,11.43
2022-12-25T00:34:10.476Z,10.63
2022-12-25T00:36:42.036Z,9.60
2022-12-25T00:39:10.879Z,10.90
2022-12-25T00:41:56.361Z,10.15
2022-12-25T00:44:24.418Z,10.65
2022-12-25T00:46:52.389Z,10.93
2022-12-25T00:49:22.743Z,11.30
2022-12-25T00:51:52.382Z,12.13
2022-12-25T00:54:20.952Z,11.20
2022-12-25T00:56:48.966Z,11.55
2022-12-25T00:59:16.996Z,12.00
2022-12-25T01:01:45.342Z,12.13
2022-12-25T01:04:14.020Z,11.73
2022-12-25T01:06:42.447Z,11.70
2022-12-25T01:09:37.620Z,11.80
2022-12-25T01:12:05.587Z,12.30
2022-12-25T01:14:33.460Z,11.55
2022-12-25T01:17:01.222Z,12.47
2022-12-25T01:19:29.076Z,11.85
2022-12-25T01:21:56.898Z,11.30
2022-12-25T01:24:26.043Z,11.85
2022-12-25T01:26:55.365Z,11.52
2022-12-25T01:29:23.208Z,13.17
2022-12-25T01:31:51.212Z,13.27
2022-12-25T01:34:19.177Z,13.52
2022-12-25T01:36:47.004Z,13.05
2022-12-25T01:39:14.770Z,13.77
2022-12-25T01:41:44.046Z,12.93
2022-12-25T01:44:47.364Z,12.50
2022-12-25T01:47:16.958Z,13.18
2022-12-25T01:49:49.076Z,12.75
2022-12-25T01:52:23.874Z,13.75
2022-12-25T01:54:56.117Z,12.40
2022-12-25T01:57:29.742Z,12.88
2022-12-25T01:59:59.899Z,13.18
2022-12-25T02:02:28.823Z,13.85
2022-12-25T02:05:00.981Z,13.70
2022-12-25T02:07:30.885Z,14.00
2022-12-25T02:09:58.746Z,12.88
2022-12-25T02:12:29.919Z,13.30
2022-12-25T02:15:05.332Z,14.90
2022-12-25T02:17:38.195Z,12.75
2022-12-25T02:20:42.625Z,13.40
2022-12-25T02:23:43.326Z,13.85
2022-12-25T02:26:24.711Z,13.20
2022-12-25T02:28:58.952Z,14.13
2022-12-25T02:31:33.783Z,13.43
2022-12-25T02:34:08.963Z,13.80
2022-12-25T02:36:42.500Z,13.65
2022-12-25T02:39:37.399Z,13.52
2022-12-25T02:42:09.249Z,14.30
2022-12-25T02:45:02.783Z,14.90
2022-12-25T02:47:49.667Z,14.33
2022-12-25T02:50:35.353Z,15.57
2022-12-25T02:53:22.340Z,13.80
2022-12-25T02:56:09.594Z,14.45
2022-12-25T02:58:57.744Z,14.75
2022-12-25T03:01:48.927Z,13.93
2022-12-25T03:04:39.799Z,15.70
2022-12-25T03:07:10.778Z,13.68
2022-12-25T03:10:00.189Z,13.38
2022-12-25T03:12:39.610Z,14.75
2022-12-25T03:15:27.460Z,14.47
2022-12-25T03:18:00.108Z,14.38
2022-12-25T03:20:45.984Z,13.90
2022-12-25T03:23:33.817Z,14.48
2022-12-25T03:26:19.292Z,14.35
2022-12-25T03:28:47.152Z,13.60
2022-12-25T03:31:17.317Z,13.85
2022-12-25T03:34:17.249Z,14.18
2022-12-25T03:36:58.239Z,13.73
2022-12-25T03:39:53.077Z,14.25
2022-12-25T03:42:46.892Z,13.53
2022-12-25T03:45:37.352Z,13.68
2022-12-25T03:48:24.680Z,13.02
2022-12-25T03:51:15.941Z,13.40
2022-12-25T03:54:05.697Z,13.52
2022-12-25T03:56:52.662Z,14.17
2022-12-25T03:59:39.619Z,12.82
2022-12-25T04:02:25.486Z,13.70
2022-12-25T04:05:16.146Z,13.23
2022-12-25T04:08:02.949Z,14.15
2022-12-25T04:10:48.010Z,14.13
2022-12-25T04:13:33.855Z,13.95
2022-12-25T04:16:19.154Z,13.93
2022-12-25T04:19:05.199Z,15.07
2022-12-25T04:21:50.366Z,15.65
2022-12-25T04:24:36.978Z,15.47
2022-12-25T04:27:34.251Z,15.60
2022-12-25T04:30:19.739Z,14.82
2022-12-25T04:33:05.319Z,15.20
2022-12-25T04:35:56.249Z,14.77
2022-12-25T04:38:24.547Z,14.13
2022-12-25T04:40:53.717Z,13.90
2022-12-25T04:43:24.602Z,14.50
2022-12-25T04:45:56.491Z,15.27
2022-12-25T04:48:24.803Z,14.07
2022-12-25T04:50:52.778Z,15.53
2022-12-25T04:53:20.658Z,15.32
2022-12-25T04:55:48.503Z,14.30
2022-12-25T04:58:17.749Z,14.32
2022-12-25T05:00:45.604Z,14.40
2022-12-25T05:03:13.555Z,15.27
2022-12-25T05:05:41.672Z,15.70
2022-12-25T05:08:09.650Z,15.70
2022-12-25T05:10:41.069Z,17.83
2022-12-25T05:13:09.153Z,16.17
2022-12-25T05:15:40.754Z,17.40
2022-12-25T05:18:08.780Z,18.92
2022-12-25T05:20:40.284Z,17.50
2022-12-25T05:23:08.927Z,16.23
2022-12-25T05:25:40.365Z,17.05
2022-12-25T05:28:08.968Z,16.83
2022-12-25T05:30:38.237Z,16.55
2022-12-25T05:33:06.641Z,16.85
2022-12-25T05:35:34.450Z,16.17
2022-12-25T05:38:02.325Z,16.02
2022-12-25T05:40:30.696Z,16.13
2022-12-25T05:42:58.604Z,16.73
2022-12-25T05:45:26.787Z,17.02
2022-12-25T05:47:56.269Z,16.50
2022-12-25T05:50:24.046Z,16.60
2022-12-25T05:53:08.268Z,16.10
2022-12-25T05:55:36.750Z,17.33
2022-12-25T05:58:05.225Z,17.15
2022-12-25T06:00:33.815Z,16.77
2022-12-25T06:03:03.060Z,16.33
2022-12-25T06:05:31.546Z,17.13
2022-12-25T06:07:59.570Z,17.88
2022-12-25T06:10:27.405Z,17.13
2022-12-25T06:12:55.952Z,17.35
2022-12-25T06:15:23.852Z,18.58
2022-12-25T06:17:51.748Z,17.23
2022-12-25T06:20:21.016Z,19.50
2022-12-25T06:22:49.056Z,19.05
2022-12-25T06:25:17.304Z,17.25
2022-12-25T06:27:45.178Z,17.35
2022-12-25T06:30:13.403Z,17.40
2022-12-25T06:32:56.551Z,16.13
2022-12-25T06:35:24.478Z,16.92
2022-12-25T06:37:52.479Z,17.30
2022-12-25T06:40:20.537Z,17.55
2022-12-25T06:42:48.365Z,16.95
2022-12-25T06:45:16.265Z,17.80
2022-12-25T06:47:44.177Z,16.52
2022-12-25T06:50:13.604Z,16.55
2022-12-25T06:52:41.513Z,17.00
2022-12-25T06:55:10.229Z,16.13
2022-12-25T06:57:38.200Z,17.87
2022-12-25T07:00:07.845Z,17.63
2022-12-25T07:02:38.504Z,17.75
2022-12-25T07:05:07.464Z,16.58
2022-12-25T07:07:36.863Z,17.00
2022-12-25T07:10:05.134Z,16.73
2022-12-25T07:12:33.025Z,16.95
2022-12-25T07:15:01.142Z,16.65
2022-12-25T07:17:29.122Z,16.75
2022-12-25T07:19:57.270Z,17.58
2022-12-25T07:22:25.201Z,16.20
2022-12-25T07:24:54.901Z,17.13
2022-12-25T07:27:23.006Z,15.25
2022-12-25T07:29:50.895Z,15.60
2022-12-25T07:32:19.233Z,15.00
2022-12-25T07:34:47.091Z,15.70
2022-12-25T07:37:15.039Z,15.18
2022-12-25T07:39:43.156Z,15.18
2022-12-25T07:42:13.501Z,14.57
2022-12-25T07:44:44.329Z,14.63
2022-12-25T07:47:12.213Z,14.37
2022-12-25T07:49:40.171Z,15.70
2022-12-25T07:52:08.165Z,14.90
2022-12-25T07:54:36.014Z,14.73
2022-12-25T07:57:03.854Z,15.07
2022-12-25T07:59:33.303Z,14.77
2022-12-25T08:02:01.384Z,14.35
2022-12-25T08:04:29.403Z,14.85
2022-12-25T08:06:57.233Z,15.10
2022-12-25T08:09:25.220Z,14.60
2022-12-25T08:11:53.422Z,14.80
2022-12-25T08:14:21.373Z,14.45
2022-12-25T08:16:50.825Z,15.80
2022-12-25T08:19:19.039Z,15.23
2022-12-25T08:21:46.974Z,14.63
2022-12-25T08:24:15.034Z,15.27
2022-12-25T08:26:43.051Z,16.20
2022-12-25T08:29:10.776Z,14.43
2022-12-25T08:31:45.781Z,15.45
2022-12-25T08:34:15.747Z,15.98
2022-12-25T08:36:43.623Z,15.13
2022-12-25T08:39:11.690Z,15.23
2022-12-25T08:41:39.536Z,15.98
2022-12-25T08:44:07.806Z,16.45
2022-12-25T08:46:39.793Z,15.35
2022-12-25T08:49:07.871Z,15.07
2022-12-25T08:51:37.671Z,15.68
2022-12-25T08:54:05.949Z,15.27
2022-12-25T08:56:33.967Z,14.57
2022-12-25T08:59:01.912Z,15.05
2022-12-25T09:01:30.095Z,14.83
2022-12-25T09:03:58.544Z,15.60
2022-12-25T09:06:26.445Z,15.00
2022-12-25T09:08:57.672Z,14.40
2022-12-25T09:11:25.521Z,14.15
2022-12-25T09:13:53.587Z,13.90
2022-12-25T09:16:23.485Z,11.60
2022-12-25T09:18:54.861Z,13.40
2022-12-25T09:21:22.996Z,12.38
2022-12-25T09:23:53.689Z,12.65
2022-12-25T09:26:22.850Z,11.53
2022-12-25T09:28:52.583Z,12.63
2022-12-25T09:31:21.853Z,11.45
2022-12-25T09:33:50.151Z,11.68
2022-12-25T09:36:18.228Z,11.32
2022-12-25T09:38:46.048Z,10.60
2022-12-25T09:41:18.206Z,11.05
2022-12-25T09:43:52.453Z,11.82
2022-12-25T09:46:27.080Z,11.52
2022-12-25T09:49:03.998Z,12.43
2022-12-25T09:51:36.417Z,10.73
2022-12-25T09:54:11.751Z,10.85
2022-12-25T09:56:40.365Z,11.15
2022-12-25T09:59:19.447Z,11.40
2022-12-25T10:01:59.937Z,11.38
2022-12-25T10:04:46.963Z,10.83
2022-12-25T10:07:23.423Z,10.73
2022-12-25T10:10:00.569Z,9.18
2022-12-25T10:12:44.286Z,11.07
2022-12-25T10:15:29.075Z,9.88
2022-12-25T10:18:15.053Z,9.70
2022-12-25T10:20:49.683Z,9.50
2022-12-25T10:23:23.184Z,10.23
2022-12-25T10:26:09.697Z,9.23
2022-12-25T10:28:46.832Z,10.05
2022-12-25T10:31:22.486Z,9.77
2022-12-25T10:33:54.298Z,9.35
2022-12-25T10:36:24.331Z,9.60
2022-12-25T10:38:52.888Z,9.05
2022-12-25T10:41:36.371Z,9.75
2022-12-25T10:44:14.476Z,9.53
2022-12-25T10:46:50.159Z,10.10
2022-12-25T10:49:19.570Z,10.88
2022-12-25T10:51:47.771Z,11.05
2022-12-25T10:54:22.923Z,10.77
2022-12-25T10:56:55.071Z,10.50
2022-12-25T10:59:23.150Z,10.70
2022-12-25T11:01:55.528Z,11.18
2022-12-25T11:04:29.514Z,11.60
2022-12-25T11:06:59.561Z,10.95
2022-12-25T11:09:27.715Z,10.47
2022-12-25T11:11:55.750Z,10.38
2022-12-25T11:14:24.230Z,9.75
2022-12-25T11:16:53.678Z,9.65
2022-12-25T11:19:28.131Z,9.32
2022-12-25T11:21:57.891Z,8.37
2022-12-25T11:24:28.879Z,8.95
2022-12-25T11:26:58.662Z,8.43
2022-12-25T11:29:35.035Z,8.02
2022-12-25T11:32:06.935Z,8.93
2022-12-25T11:34:38.690Z,9.80
2022-12-25T11:37:12.348Z,9.27
2022-12-25T11:39:42.207Z,8.63
2022-12-25T11:42:14.509Z,8.93
2022-12-25T11:44:48.316Z,9.45
2022-12-25T11:47:22.844Z,8.93
2022-12-25T11:50:00.343Z,8.68
2022-12-25T11:52:33.000Z,9.75
2022-12-25T11:55:06.382Z,9.68
2022-12-25T11:57:36.832Z,9.30
2022-12-25T12:00:10.241Z,9.10
2022-12-25T12:02:45.112Z,10.38
2022-12-25T12:05:18.809Z,9.52
2022-12-25T12:08:00.029Z,9.50
2022-12-25T12:10:35.632Z,9.52
2022-12-25T12:13:19.283Z,8.97
2022-12-25T12:15:48.805Z,9.32
2022-12-25T12:18:23.424Z,9.65
2022-12-25T12:21:06.696Z,10.55
2022-12-25T12:23:37.844Z,10.13
2022-12-25T12:26:06.253Z,10.73
2022-12-25T12:28:44.691Z,9.57
2022-12-25T12:31:13.150Z,10.80
2022-12-25T12:33:44.958Z,10.52
2022-12-25T12:36:15.284Z,9.95
2022-12-25T12:38:45.172Z,10.40
2022-12-25T12:41:15.300Z,10.60
2022-12-25T12:43:46.393Z,10.65
2022-12-25T12:46:26.220Z,10.18
2022-12-25T12:49:11.793Z,9.80
2022-12-25T12:51:39.698Z,9.97
2022-12-25T12:54:20.872Z,10.25
2022-12-25T12:56:59.955Z,11.27
2022-12-25T12:59:34.111Z,9.13
2022-12-25T13:02:14.785Z,10.55
2022-12-25T13:05:00.506Z,9.57
2022-12-25T13:07:45.622Z,9.85
2022-12-25T13:10:28.864Z,9.85
2022-12-25T13:13:00.504Z,10.13
2022-12-25T13:15:31.253Z,10.73
2022-12-25T13:18:03.798Z,10.53
2022-12-25T13:20:41.541Z,9.88
2022-12-25T13:23:27.046Z,10.68
2022-12-25T13:25:56.715Z,10.50
2022-12-25T13:28:29.688Z,10.60
2022-12-25T13:31:06.610Z,11.13
2022-12-25T13:33:35.992Z,11.65
2022-12-25T13:36:05.848Z,10.77
2022-12-25T13:38:33.764Z,10.65
2022-12-25T13:41:19.034Z,11.00
2022-12-25T13:43:49.282Z,11.00
2022-12-25T13:46:17.414Z,11.50
2022-12-25T13:48:45.407Z,11.73
2022-12-25T13:51:17.755Z,11.15
2022-12-25T13:53:45.758Z,11.75
2022-12-25T13:56:16.054Z,11.47
2022-12-25T13:58:44.368Z,12.25
2022-12-25T14:01:18.536Z,12.15
2022-12-25T14:03:48.557Z,11.77
2022-12-25T14:06:21.828Z,12.85
2022-12-25T14:08:50.819Z,12.33
2022-12-25T14:11:22.226Z,12.73
2022-12-25T14:13:53.910Z,13.93
2022-12-25T14:16:22.561Z,11.90
2022-12-25T14:18:56.077Z,13.18
2022-12-25T14:21:31.647Z,12.53
2022-12-25T14:24:00.111Z,12.65
2022-12-25T14:26:31.239Z,13.80
2022-12-25T14:29:12.660Z,13.00
2022-12-25T14:31:43.659Z,13.63
2022-12-25T14:34:17.007Z,13.90
2022-12-25T14:36:47.105Z,13.25
2022-12-25T14:39:30.888Z,13.07
2022-12-25T14:41:58.946Z,13.25
2022-12-25T14:44:32.550Z,12.98
2022-12-25T14:47:16.569Z,13.80
2022-12-25T14:49:45.181Z,12.68
2022-12-25T14:52:19.150Z,13.60
2022-12-25T14:54:48.966Z,13.18
2022-12-25T14:57:20.745Z,13.52
2022-12-25T14:59:56.689Z,13.83
2022-12-25T15:02:24.969Z,13.07
2022-12-25T15:04:53.493Z,13.57
2022-12-25T15:07:29.401Z,12.90
2022-12-25T15:10:27.303Z,13.13
2022-12-25T15:12:45.211Z,13.30
2022-12-25T15:15:13.003Z,13.70
2022-12-25T15:17:42.668Z,14.77
2022-12-25T15:20:13.204Z,14.77
2022-12-25T15:23:10.295Z,13.15
2022-12-25T15:25:31.106Z,13.50
2022-12-25T15:28:00.215Z,13.38
2022-12-25T15:30:28.411Z,14.38
2022-12-25T15:32:59.059Z,14.25
2022-12-25T15:35:27.062Z,14.93
2022-12-25T15:37:56.400Z,14.73
2022-12-25T15:40:26.569Z,14.18
2022-12-25T15:42:56.648Z,14.50
2022-12-25T15:45:27.256Z,13.98
2022-12-25T15:47:55.162Z,15.20
2022-12-25T15:50:23.269Z,14.00
2022-12-25T15:52:51.303Z,14.93
2022-12-25T15:55:20.653Z,14.77
2022-12-25T15:57:49.003Z,13.68
2022-12-25T16:00:19.971Z,14.40
2022-12-25T16:02:50.704Z,14.93
2022-12-25T16:05:18.812Z,13.93
2022-12-25T16:07:46.808Z,14.23
2022-12-25T16:10:17.108Z,14.57
2022-12-25T16:12:46.975Z,14.18
2022-12-25T16:15:16.162Z,13.50
2022-12-25T16:17:44.340Z,14.35
2022-12-25T16:20:12.772Z,15.45
2022-12-25T16:22:40.796Z,15.05
2022-12-25T16:25:14.643Z,14.63
2022-12-25T16:27:42.853Z,14.33
2022-12-25T16:30:15.342Z,13.98
2022-12-25T16:32:44.222Z,14.07
2022-12-25T16:35:12.784Z,15.05
2022-12-25T16:37:41.129Z,14.13
2022-12-25T16:40:10.582Z,15.03
2022-12-25T16:42:39.257Z,14.68
2022-12-25T16:45:08.169Z,14.82
2022-12-25T16:47:37.536Z,14.45
2022-12-25T16:50:07.060Z,15.48
2022-12-25T16:52:35.802Z,14.10
2022-12-25T16:55:04.572Z,14.88
2022-12-25T16:57:32.691Z,15.38
2022-12-25T17:00:00.946Z,13.82
2022-12-25T17:02:29.317Z,14.45
2022-12-25T17:05:00.385Z,13.67
2022-12-25T17:07:28.258Z,13.82
2022-12-25T17:09:57.188Z,14.18
2022-12-25T17:12:25.291Z,16.38
2022-12-25T17:14:53.428Z,16.58
2022-12-25T17:17:21.359Z,17.13
2022-12-25T17:19:49.289Z,16.52
2022-12-25T17:22:18.619Z,16.85
2022-12-25T17:24:46.453Z,16.50
2022-12-25T17:27:14.603Z,16.83
2022-12-25T17:29:43.825Z,17.63
2022-12-25T17:32:12.602Z,16.10
2022-12-25T17:34:40.466Z,18.75
2022-12-25T17:37:08.343Z,19.90
2022-12-25T17:39:38.567Z,21.00
2022-12-25T17:42:06.613Z,19.03
2022-12-25T17:44:34.618Z,18.35
2022-12-25T17:47:02.657Z,18.40
2022-12-25T17:49:30.543Z,18.02
2022-12-25T17:51:58.423Z,16.65
2022-12-25T17:54:26.197Z,16.17
2022-12-25T17:56:55.348Z,16.90
2022-12-25T17:59:28.432Z,15.80
2022-12-25T18:01:56.585Z,15.20
2022-12-25T18:04:25.046Z,16.73
2022-12-25T18:06:53.413Z,15.40
2022-12-25T18:09:21.297Z,16.80
2022-12-25T18:11:49.271Z,14.57
2022-12-25T18:14:18.797Z,14.73
2022-12-25T18:16:47.038Z,16.42
2022-12-25T18:19:17.720Z,15.13
2022-12-25T18:21:45.712Z,15.50
2022-12-25T18:24:13.785Z,15.98
2022-12-25T18:26:41.618Z,16.83
2022-12-25T18:29:09.506Z,15.77
2022-12-25T18:31:38.986Z,15.60
2022-12-25T18:34:06.935Z,14.95
2022-12-25T18:36:35.000Z,15.50
2022-12-25T18:39:02.973Z,16.10
2022-12-25T18:41:31.050Z,15.68
2022-12-25T18:44:00.996Z,16.37
2022-12-25T18:46:29.359Z,16.75
2022-12-25T18:48:58.874Z,17.08
2022-12-25T18:51:33.137Z,17.50
2022-12-25T18:54:04.987Z,16.88
2022-12-25T18:56:33.424Z,17.20
2022-12-25T18:59:01.483Z,18.45
2022-12-25T19:01:29.533Z,18.02
2022-12-25T19:04:04.333Z,18.20
2022-12-25T19:06:33.809Z,19.50
2022-12-25T19:09:09.327Z,20.30
2022-12-25T19:11:45.586Z,19.98
2022-12-25T19:14:14.813Z,19.00
2022-12-25T19:16:42.654Z,19.30
2022-12-25T19:19:12.245Z,18.48
2022-12-25T19:21:42.885Z,18.67
2022-12-25T19:24:10.844Z,18.08
2022-12-25T19:26:38.811Z,18.67
2022-12-25T19:29:06.702Z,18.13
2022-12-25T19:31:34.736Z,20.13
2022-12-25T19:34:02.773Z,19.07
2022-12-25T19:36:32.516Z,18.42
2022-12-25T19:39:00.385Z,18.10
2022-12-25T19:41:28.242Z,17.05
2022-12-25T19:43:56.258Z,17.45
2022-12-25T19:46:26.658Z,16.33
2022-12-25T19:48:56.133Z,18.00
2022-12-25T19:51:26.684Z,16.92
2022-12-25T19:53:57.170Z,17.13
2022-12-25T19:56:25.482Z,21.73
2022-12-25T19:58:53.542Z,21.47
2022-12-25T20:01:23.724Z,20.08
2022-12-25T20:03:51.766Z,17.02
2022-12-25T20:06:23.283Z,17.50
2022-12-25T20:08:53.621Z,15.88
2022-12-25T20:11:24.104Z,16.53
2022-12-25T20:13:52.300Z,16.00
2022-12-25T20:16:20.543Z,18.48
2022-12-25T20:18:48.555Z,18.55
2022-12-25T20:21:21.119Z,15.50
2022-12-25T20:23:51.693Z,19.20
2022-12-25T20:26:21.711Z,22.05
2022-12-25T20:28:51.529Z,17.02
2022-12-25T20:31:23.126Z,15.77
2022-12-25T20:33:51.403Z,17.83
2022-12-25T20:36:19.738Z,18.60
2022-12-25T20:38:47.678Z,20.80
2022-12-25T20:41:26.912Z,19.70
2022-12-25T20:43:57.893Z,18.08
2022-12-25T20:46:26.977Z,19.85
2022-12-25T20:48:55.058Z,34.67
2022-12-25T20:51:24.668Z,28.65
2022-12-25T20:53:53.083Z,29.65
2022-12-25T20:56:24.092Z,25.35
2022-12-25T20:58:54.984Z,20.17
2022-12-25T21:01:24.727Z,17.80
2022-12-25T21:03:52.984Z,18.48
2022-12-25T21:06:21.610Z,18.73
2022-12-25T21:08:49.679Z,16.77
2022-12-25T21:11:18.233Z,16.65
2022-12-25T21:13:47.027Z,17.50
2022-12-25T21:16:18.362Z,17.13
2022-12-25T21:18:48.387Z,17.38
2022-12-25T21:21:16.795Z,17.85
2022-12-25T21:23:45.646Z,18.00
2022-12-25T21:26:16.738Z,19.20
2022-12-25T21:28:44.813Z,17.45
2022-12-25T21:31:13.019Z,18.15
2022-12-25T21:33:51.984Z,17.65
2022-12-25T21:36:24.064Z,17.30
2022-12-25T21:38:57.570Z,17.73
2022-12-25T21:41:27.161Z,19.27
2022-12-25T21:43:55.434Z,18.00
2022-12-25T21:46:23.515Z,17.67
2022-12-25T21:48:51.679Z,18.75
2022-12-25T21:51:42.083Z,17.57
2022-12-25T21:54:10.893Z,17.45
2022-12-25T21:56:44.515Z,17.73
2022-12-25T21:59:14.949Z,17.40
2022-12-25T22:01:43.508Z,16.77
2022-12-25T22:04:12.796Z,16.43
2022-12-25T22:07:00.462Z,16.38
2022-12-25T22:09:28.621Z,14.45
2022-12-25T22:12:15.992Z,15.70
2022-12-25T22:14:56.842Z,14.68
2022-12-25T22:17:44.862Z,14.63
2022-12-25T22:20:15.620Z,14.55
2022-12-25T22:22:45.354Z,15.00
2022-12-25T22:25:14.352Z,15.20
2022-12-25T22:27:47.829Z,16.40
2022-12-25T22:30:17.608Z,16.93
2022-12-25T22:32:46.308Z,16.42
2022-12-25T22:35:15.103Z,16.05
2022-12-25T22:37:44.799Z,16.55
2022-12-25T22:40:15.016Z,15.68
2022-12-25T22:42:43.362Z,15.40
2022-12-25T22:45:12.570Z,15.25
2022-12-25T22:47:40.715Z,14.52
2022-12-25T22:50:09.767Z,15.68
2022-12-25T22:52:39.397Z,14.70
2022-12-25T22:55:10.223Z,14.60
2022-12-25T22:57:38.113Z,14.00
2022-12-25T23:00:08.925Z,14.65
2022-12-25T23:02:37.009Z,14.15
2022-12-25T23:05:05.630Z,14.57
2022-12-25T23:07:33.401Z,13.90
2022-12-25T23:10:01.369Z,13.23
2022-12-25T23:12:48.212Z,14.07
2022-12-25T23:15:16.128Z,13.00
2022-12-25T23:18:01.518Z,13.90
2022-12-25T23:20:46.916Z,13.87
2022-12-25T23:23:33.949Z,13.75
2022-12-25T23:26:11.396Z,12.20
2022-12-25T23:29:00.868Z,12.48
2022-12-25T23:31:34.371Z,11.63
2022-12-25T23:34:03.211Z,11.23
2022-12-25T23:36:30.998Z,11.40
2022-12-25T23:39:04.784Z,10.75
2022-12-25T23:41:36.791Z,10.02
2022-12-25T23:44:06.193Z,10.27
2022-12-25T23:46:34.162Z,10.30
2022-12-25T23:49:01.973Z,10.85
2022-12-25T23:51:29.902Z,9.27
2022-12-25T23:53:57.881Z,9.73
2022-12-25T23:56:25.829Z,11.07
2022-12-25T23:58:53.741Z,10.80
